Terminal Aerodrome Forecast
Issued by NWS Charleston, WV

Current Version | Previous Version | Text Only | Print | Product List | Glossary Off
Versions: 1 2 3 4 5 6 7 8 9 10 11 12 13 14 15 16 17 18 19 20 21 22 23 24

000
FTUS41 KRLX 270258 AAA
TAFHTS
TAF AMD
KHTS 270258Z 2703/2724 24005KT P6SM VCTS SCT040CB BKN060
      TEMPO 2703/2704 VRB12KT 2SM +TSRA BR BKN025CB OVC060
     FM270400 00000KT 3SM -SHRA VCTS BKN025CB
     FM271600 01004KT 4SM BR VCTS BKN022CB
     FM271900 34004KT 3SM SHRA BR VCTS BKN015CB
     FM272300 VRB03KT 3SM HZ VCTS BKN015CB=

USA.gov is the U.S. government's official web portal to all federal, state and local government web resources and services.